createdAt,value
2023-05-13T00:00:58.364Z,25.00
2023-05-13T00:01:58.382Z,24.98
2023-05-13T00:02:58.440Z,24.97
2023-05-13T00:03:58.352Z,24.97
2023-05-13T00:04:58.392Z,24.98
2023-05-13T00:05:58.480Z,24.97
2023-05-13T00:06:58.432Z,24.97
2023-05-13T00:07:58.467Z,24.97
2023-05-13T00:08:58.587Z,24.96
2023-05-13T00:09:58.430Z,24.97
2023-05-13T00:10:58.415Z,24.96
2023-05-13T00:11:58.400Z,24.98
2023-05-13T00:12:58.385Z,24.96
2023-05-13T00:13:58.339Z,24.97
2023-05-13T00:14:58.359Z,24.97
2023-05-13T00:15:58.427Z,24.96
2023-05-13T00:16:58.274Z,24.94
2023-05-13T00:17:58.336Z,24.96
2023-05-13T00:18:58.279Z,24.94
2023-05-13T00:19:58.219Z,24.94
2023-05-13T00:20:58.181Z,24.96
2023-05-13T00:21:58.147Z,24.96
2023-05-13T00:22:58.230Z,24.96
2023-05-13T00:23:58.184Z,24.94
2023-05-13T00:24:58.270Z,24.94
2023-05-13T00:25:58.167Z,24.94
2023-05-13T00:26:58.136Z,24.94
2023-05-13T00:27:58.223Z,24.96
2023-05-13T00:28:58.123Z,24.93
2023-05-13T00:29:58.122Z,24.93
2023-05-13T00:30:58.106Z,24.97
2023-05-13T00:31:58.182Z,24.93
2023-05-13T00:32:58.119Z,24.94
2023-05-13T00:33:58.027Z,24.96
2023-05-13T00:34:58.038Z,24.94
2023-05-13T00:35:57.939Z,24.94
2023-05-13T00:36:57.904Z,24.91
2023-05-13T00:37:57.876Z,24.94
2023-05-13T00:38:57.842Z,24.94
2023-05-13T00:39:57.800Z,24.94
2023-05-13T00:40:57.778Z,24.93
2023-05-13T00:41:57.808Z,24.94
2023-05-13T00:42:57.674Z,24.93
2023-05-13T00:43:57.648Z,24.90
2023-05-13T00:44:57.610Z,24.93
2023-05-13T00:45:57.610Z,24.91
2023-05-13T00:46:57.538Z,24.91
2023-05-13T00:47:57.537Z,24.91
2023-05-13T00:48:57.533Z,24.91
2023-05-13T00:49:57.441Z,24.91
2023-05-13T00:50:57.423Z,24.91
2023-05-13T00:51:57.395Z,24.90
2023-05-13T00:52:57.392Z,24.91
2023-05-13T00:53:57.367Z,24.90
2023-05-13T00:54:57.399Z,24.91
2023-05-13T00:55:57.457Z,24.90
2023-05-13T00:56:57.363Z,24.91
2023-05-13T00:57:57.390Z,24.91
2023-05-13T00:58:57.402Z,24.91
2023-05-13T00:59:57.437Z,24.90
2023-05-13T01:00:57.463Z,24.90
2023-05-13T01:01:57.413Z,24.87
2023-05-13T01:02:57.538Z,24.91
2023-05-13T01:03:57.401Z,24.89
2023-05-13T01:04:57.413Z,24.90
2023-05-13T01:05:57.481Z,24.89
2023-05-13T01:06:57.469Z,24.90
2023-05-13T01:07:57.414Z,24.90
2023-05-13T01:08:57.336Z,24.89
2023-05-13T01:09:57.307Z,24.90
2023-05-13T01:10:57.299Z,24.91
2023-05-13T01:11:57.368Z,24.89
2023-05-13T01:12:57.224Z,24.90
2023-05-13T01:13:57.173Z,24.89
2023-05-13T01:14:57.130Z,24.89
2023-05-13T01:15:57.079Z,24.87
2023-05-13T01:16:57.132Z,24.91
2023-05-13T01:17:57.042Z,24.89
2023-05-13T01:18:57.007Z,24.89
2023-05-13T01:19:56.938Z,24.89
2023-05-13T01:20:56.911Z,24.90
2023-05-13T01:21:56.920Z,24.89
2023-05-13T01:22:56.897Z,24.89
2023-05-13T01:23:56.826Z,24.87
2023-05-13T01:24:56.822Z,24.90
2023-05-13T01:25:56.743Z,24.87
2023-05-13T01:26:56.753Z,24.86
2023-05-13T01:27:56.685Z,24.87
2023-05-13T01:28:56.672Z,24.89
2023-05-13T01:29:56.675Z,24.87
2023-05-13T01:30:56.605Z,24.89
2023-05-13T01:31:57.396Z,24.86
2023-05-13T01:32:56.906Z,24.87
2023-05-13T01:33:56.586Z,24.87
2023-05-13T01:34:56.637Z,24.86
2023-05-13T01:35:56.621Z,24.87
2023-05-13T01:36:56.574Z,24.83
2023-05-13T01:37:56.918Z,24.86
2023-05-13T01:38:57.391Z,24.87
2023-05-13T01:39:56.594Z,24.84
2023-05-13T01:40:56.624Z,24.84
2023-05-13T01:41:56.508Z,24.87
2023-05-13T01:42:56.391Z,24.86
2023-05-13T01:43:56.360Z,24.84
2023-05-13T01:44:56.356Z,24.86
2023-05-13T01:45:56.377Z,24.87
2023-05-13T01:46:56.390Z,24.86
2023-05-13T01:47:56.406Z,24.86
2023-05-13T01:48:56.331Z,24.84
2023-05-13T01:49:56.304Z,24.86
2023-05-13T01:50:56.308Z,24.86
2023-05-13T01:51:56.331Z,24.84
2023-05-13T01:52:56.301Z,24.86
2023-05-13T01:53:56.310Z,24.83
2023-05-13T01:54:56.415Z,24.84
2023-05-13T01:55:56.377Z,24.84
2023-05-13T01:56:56.386Z,24.83
2023-05-13T01:57:56.382Z,24.83
2023-05-13T01:58:56.347Z,24.86
2023-05-13T01:59:56.348Z,24.86
2023-05-13T02:00:56.877Z,24.83
2023-05-13T02:01:56.432Z,24.86
2023-05-13T02:02:56.544Z,24.86
2023-05-13T02:03:56.479Z,24.82
2023-05-13T02:04:56.356Z,24.84
2023-05-13T02:05:56.254Z,24.83
2023-05-13T02:06:56.296Z,24.82
2023-05-13T02:07:56.259Z,24.83
2023-05-13T02:08:56.271Z,24.84
2023-05-13T02:09:56.331Z,24.83
2023-05-13T02:10:56.147Z,24.83
2023-05-13T02:11:56.160Z,24.83
2023-05-13T02:12:56.305Z,24.83
2023-05-13T02:13:56.156Z,24.80
2023-05-13T02:14:56.265Z,24.83
2023-05-13T02:15:56.300Z,24.83
2023-05-13T02:16:56.168Z,24.83
2023-05-13T02:17:56.123Z,24.83
2023-05-13T02:18:56.125Z,24.82
2023-05-13T02:19:56.056Z,24.80
2023-05-13T02:20:56.036Z,24.82
2023-05-13T02:21:55.986Z,24.82
2023-05-13T02:22:55.958Z,24.80
2023-05-13T02:23:55.978Z,24.79
2023-05-13T02:24:55.884Z,24.80
2023-05-13T02:25:55.842Z,24.80
2023-05-13T02:26:55.818Z,24.82
2023-05-13T02:27:55.807Z,24.82
2023-05-13T02:28:55.753Z,24.82
2023-05-13T02:29:55.763Z,24.82
2023-05-13T02:30:55.681Z,24.80
2023-05-13T02:31:55.777Z,24.79
2023-05-13T02:32:55.957Z,24.80
2023-05-13T02:33:55.591Z,24.80
2023-05-13T02:34:55.551Z,24.80
2023-05-13T02:35:55.525Z,24.82
2023-05-13T02:36:55.487Z,24.79
2023-05-13T02:37:55.468Z,24.80
2023-05-13T02:38:55.419Z,24.80
2023-05-13T02:39:55.389Z,24.77
2023-05-13T02:40:55.357Z,24.80
2023-05-13T02:41:55.334Z,24.80
2023-05-13T02:42:55.272Z,24.76
2023-05-13T02:43:55.237Z,24.80
2023-05-13T02:44:55.196Z,24.79
2023-05-13T02:45:55.240Z,24.75
2023-05-13T02:46:55.134Z,24.73
2023-05-13T02:47:55.114Z,24.70
2023-05-13T02:48:55.132Z,24.69
2023-05-13T02:49:55.124Z,24.66
2023-05-13T02:50:55.005Z,24.69
2023-05-13T02:51:55.001Z,24.63
2023-05-13T02:52:55.019Z,24.62
2023-05-13T02:53:54.903Z,24.62
2023-05-13T02:54:54.859Z,24.59
2023-05-13T02:55:54.856Z,24.60
2023-05-13T02:56:54.799Z,24.58
2023-05-13T02:57:54.766Z,24.56
2023-05-13T02:58:54.801Z,24.54
2023-05-13T02:59:54.705Z,24.52
2023-05-13T03:00:54.692Z,24.48
2023-05-13T03:01:54.620Z,24.49
2023-05-13T03:02:54.657Z,24.45
2023-05-13T03:03:54.557Z,24.45
2023-05-13T03:04:54.621Z,24.43
2023-05-13T03:05:54.528Z,24.42
2023-05-13T03:06:54.544Z,24.40
2023-05-13T03:07:54.456Z,24.40
2023-05-13T03:08:54.477Z,24.40
2023-05-13T03:09:54.385Z,24.39
2023-05-13T03:10:54.360Z,24.38
2023-05-13T03:11:54.369Z,24.36
2023-05-13T03:12:54.321Z,24.35
2023-05-13T03:13:54.301Z,24.32
2023-05-13T03:14:54.269Z,24.31
2023-05-13T03:15:54.295Z,24.29
2023-05-13T03:16:54.250Z,24.29
2023-05-13T03:17:54.235Z,24.31
2023-05-13T03:18:54.236Z,24.29
2023-05-13T03:19:54.210Z,24.29
2023-05-13T03:20:54.141Z,24.27
2023-05-13T03:21:54.092Z,24.27
2023-05-13T03:22:54.072Z,24.27
2023-05-13T03:23:54.471Z,24.24
2023-05-13T03:24:53.995Z,24.24
2023-05-13T03:25:54.130Z,24.24
2023-05-13T03:26:53.997Z,24.21
2023-05-13T03:27:54.001Z,24.21
2023-05-13T03:28:54.043Z,24.21
2023-05-13T03:29:54.031Z,24.20
2023-05-13T03:30:54.076Z,24.17
2023-05-13T03:31:54.066Z,24.15
2023-05-13T03:32:54.117Z,24.18
2023-05-13T03:33:54.074Z,24.12
2023-05-13T03:34:54.115Z,24.15
2023-05-13T03:35:54.085Z,24.12
2023-05-13T03:36:54.199Z,24.14
2023-05-13T03:37:54.126Z,24.12
2023-05-13T03:38:54.154Z,24.10
2023-05-13T03:39:54.123Z,24.10
2023-05-13T03:40:54.102Z,24.08
2023-05-13T03:41:54.064Z,24.11
2023-05-13T03:42:54.065Z,24.11
2023-05-13T03:43:54.037Z,24.08
2023-05-13T03:44:53.993Z,24.08
2023-05-13T03:45:53.961Z,24.11
2023-05-13T03:46:53.999Z,24.08
2023-05-13T03:47:54.084Z,24.07
2023-05-13T03:48:53.919Z,24.07
2023-05-13T03:49:53.909Z,24.07
2023-05-13T03:50:53.948Z,24.08
2023-05-13T03:51:53.802Z,24.07
2023-05-13T03:52:53.882Z,24.08
2023-05-13T03:53:53.835Z,24.08
2023-05-13T03:54:53.837Z,24.08
2023-05-13T03:55:53.869Z,24.08
2023-05-13T03:56:53.912Z,24.08
2023-05-13T03:57:53.910Z,24.05
2023-05-13T03:58:53.948Z,24.08
2023-05-13T03:59:53.951Z,24.05
2023-05-13T04:00:53.989Z,24.04
2023-05-13T04:01:54.095Z,24.07
2023-05-13T04:02:54.197Z,24.04
2023-05-13T04:03:54.053Z,24.04
2023-05-13T04:04:54.242Z,24.03
2023-05-13T04:05:54.087Z,24.01
2023-05-13T04:06:54.135Z,24.00
2023-05-13T04:07:54.140Z,24.01
2023-05-13T04:08:54.179Z,23.97
2023-05-13T04:09:54.205Z,23.97
2023-05-13T04:10:54.212Z,23.97
2023-05-13T04:11:54.264Z,23.99
2023-05-13T04:12:54.282Z,23.94
2023-05-13T04:13:54.329Z,23.94
2023-05-13T04:14:54.339Z,23.94
2023-05-13T04:15:54.412Z,23.93
2023-05-13T04:16:54.434Z,23.94
2023-05-13T04:17:54.444Z,23.94
2023-05-13T04:18:54.515Z,23.94
2023-05-13T04:19:54.524Z,23.96
2023-05-13T04:20:54.455Z,23.99
2023-05-13T04:21:54.530Z,23.96
2023-05-13T04:22:54.571Z,23.96
2023-05-13T04:23:54.553Z,23.97
2023-05-13T04:24:54.581Z,23.93
2023-05-13T04:25:54.669Z,23.96
2023-05-13T04:26:54.674Z,23.94
2023-05-13T04:27:54.680Z,23.96
2023-05-13T04:28:54.711Z,23.93
2023-05-13T04:29:54.752Z,23.94
2023-05-13T04:30:54.897Z,23.93
2023-05-13T04:31:54.882Z,23.91
2023-05-13T04:32:54.932Z,23.93
2023-05-13T04:33:54.918Z,23.93
2023-05-13T04:34:54.947Z,23.91
2023-05-13T04:35:54.995Z,23.93
2023-05-13T04:36:55.005Z,23.91
2023-05-13T04:37:55.110Z,23.90
2023-05-13T04:38:55.150Z,23.93
2023-05-13T04:39:55.117Z,23.88
2023-05-13T04:40:55.145Z,23.87
2023-05-13T04:41:55.283Z,23.85
2023-05-13T04:42:55.334Z,23.88
2023-05-13T04:43:55.256Z,23.88
2023-05-13T04:44:55.276Z,23.88
2023-05-13T04:45:55.321Z,23.87
2023-05-13T04:46:55.352Z,23.85
2023-05-13T04:47:57.608Z,23.87
2023-05-13T04:48:55.365Z,23.87
2023-05-13T04:49:55.324Z,23.84
2023-05-13T04:50:55.286Z,23.81
2023-05-13T04:51:55.294Z,23.84
2023-05-13T04:52:55.233Z,23.83
2023-05-13T04:53:55.225Z,23.84
2023-05-13T04:54:55.190Z,23.83
2023-05-13T04:55:55.166Z,23.84
2023-05-13T04:56:55.154Z,23.83
2023-05-13T04:57:55.136Z,23.81
2023-05-13T04:58:55.135Z,23.79
2023-05-13T04:59:55.080Z,23.80
2023-05-13T05:00:55.046Z,23.80
2023-05-13T05:01:55.184Z,23.80
2023-05-13T05:02:55.154Z,23.80
2023-05-13T05:03:55.279Z,23.77
2023-05-13T05:04:55.241Z,23.79
2023-05-13T05:05:55.245Z,23.79
2023-05-13T05:06:55.345Z,23.79
2023-05-13T05:07:55.266Z,23.74
2023-05-13T05:08:55.269Z,23.79
2023-05-13T05:09:55.195Z,23.74
2023-05-13T05:10:55.200Z,23.74
2023-05-13T05:11:55.151Z,23.79
2023-05-13T05:12:55.124Z,23.79
2023-05-13T05:13:55.091Z,23.79
2023-05-13T05:14:55.055Z,23.81
2023-05-13T05:15:55.044Z,23.81
2023-05-13T05:16:55.092Z,23.80
2023-05-13T05:17:55.195Z,23.79
2023-05-13T05:18:55.692Z,23.79
2023-05-13T05:19:55.267Z,23.79
2023-05-13T05:20:55.232Z,23.81
2023-05-13T05:21:55.268Z,23.77
2023-05-13T05:22:55.302Z,23.79
2023-05-13T05:23:55.345Z,23.80
2023-05-13T05:24:55.409Z,23.79
2023-05-13T05:26:07.921Z,23.79
2023-05-13T05:26:56.517Z,23.80
2023-05-13T05:27:55.353Z,23.79
2023-05-13T05:28:55.446Z,23.77
2023-05-13T05:29:55.312Z,23.76
2023-05-13T05:30:55.288Z,23.77
2023-05-13T05:31:55.457Z,23.79
2023-05-13T05:32:55.254Z,23.77
2023-05-13T05:33:55.204Z,23.77
2023-05-13T05:34:55.208Z,23.79
2023-05-13T05:35:55.207Z,23.77
2023-05-13T05:36:55.240Z,23.77
2023-05-13T05:37:55.314Z,23.76
2023-05-13T05:38:55.354Z,23.77
2023-05-13T05:39:55.402Z,23.77
2023-05-13T05:40:55.409Z,23.76
2023-05-13T05:41:55.462Z,23.76
2023-05-13T05:42:55.504Z,23.76
2023-05-13T05:43:55.545Z,23.77
2023-05-13T05:44:55.578Z,23.72
2023-05-13T05:45:55.665Z,23.69
2023-05-13T05:46:55.679Z,23.67
2023-05-13T05:47:55.763Z,23.66
2023-05-13T05:48:55.597Z,23.70
2023-05-13T05:49:55.599Z,23.70
2023-05-13T05:50:55.562Z,23.67
2023-05-13T05:51:55.522Z,23.66
2023-05-13T05:52:55.504Z,23.66
2023-05-13T05:53:55.495Z,23.69
2023-05-13T05:54:55.452Z,23.69
2023-05-13T05:55:55.469Z,23.67
2023-05-13T05:56:55.445Z,23.67
2023-05-13T05:57:55.400Z,23.63
2023-05-13T05:58:55.413Z,23.63
2023-05-13T05:59:55.374Z,23.66
2023-05-13T06:00:55.287Z,23.64
2023-05-13T06:01:55.297Z,23.63
2023-05-13T06:02:55.374Z,23.60
2023-05-13T06:03:55.382Z,23.53
2023-05-13T06:04:55.166Z,23.53
2023-05-13T06:05:55.200Z,23.50
2023-05-13T06:06:55.286Z,23.48
2023-05-13T06:07:55.302Z,23.43
2023-05-13T06:08:55.311Z,23.41
2023-05-13T06:09:55.357Z,23.41
2023-05-13T06:10:55.380Z,23.43
2023-05-13T06:11:55.418Z,23.39
2023-05-13T06:12:55.394Z,23.42
2023-05-13T06:13:55.450Z,23.43
2023-05-13T06:14:55.319Z,23.42
2023-05-13T06:15:55.361Z,23.39
2023-05-13T06:16:55.936Z,23.41
2023-05-13T06:17:55.245Z,23.46
2023-05-13T06:18:55.315Z,23.43
2023-05-13T06:19:55.159Z,23.50
2023-05-13T06:20:55.130Z,23.50
2023-05-13T06:21:55.168Z,23.48
2023-05-13T06:22:55.172Z,23.48
2023-05-13T06:23:55.197Z,23.50
2023-05-13T06:24:55.220Z,23.49
2023-05-13T06:25:55.272Z,23.53
2023-05-13T06:26:55.312Z,23.49
2023-05-13T06:27:55.348Z,23.50
2023-05-13T06:28:55.382Z,23.52
2023-05-13T06:29:55.386Z,23.50
2023-05-13T06:30:55.569Z,23.50
2023-05-13T06:31:55.461Z,23.49
2023-05-13T06:33:01.709Z,23.50
2023-05-13T06:33:56.480Z,23.50
2023-05-13T06:34:56.046Z,23.53
2023-05-13T06:35:55.394Z,23.55
2023-05-13T06:36:55.427Z,23.56
2023-05-13T06:37:55.313Z,23.59
2023-05-13T06:38:55.270Z,23.60
2023-05-13T06:39:55.282Z,23.62
2023-05-13T06:40:55.194Z,23.60
2023-05-13T06:41:55.169Z,23.62
2023-05-13T06:42:55.128Z,23.60
2023-05-13T06:43:55.134Z,23.62
2023-05-13T06:44:55.093Z,23.63
2023-05-13T06:45:55.031Z,23.62
2023-05-13T06:46:55.180Z,23.64
2023-05-13T06:47:55.004Z,23.66
2023-05-13T06:48:54.954Z,23.69
2023-05-13T06:49:54.905Z,23.72
2023-05-13T06:50:54.888Z,23.74
2023-05-13T06:51:54.923Z,23.80
2023-05-13T06:52:54.941Z,23.83
2023-05-13T06:53:54.947Z,23.87
2023-05-13T06:54:54.990Z,23.93
2023-05-13T06:55:54.983Z,23.97
2023-05-13T06:56:55.023Z,23.97
2023-05-13T06:57:55.038Z,24.01
2023-05-13T06:58:55.060Z,24.05
2023-05-13T06:59:55.086Z,24.07
2023-05-13T07:00:55.201Z,24.08
2023-05-13T07:01:55.217Z,24.11
2023-05-13T07:02:55.175Z,24.11
2023-05-13T07:03:55.257Z,24.11
2023-05-13T07:04:55.180Z,24.15
2023-05-13T07:05:55.207Z,24.12
2023-05-13T07:06:55.230Z,24.14
2023-05-13T07:07:55.290Z,24.17
2023-05-13T07:08:55.272Z,24.15
2023-05-13T07:09:55.313Z,24.18
2023-05-13T07:10:55.328Z,24.17
2023-05-13T07:11:55.335Z,24.20
2023-05-13T07:12:55.355Z,24.21
2023-05-13T07:13:55.509Z,24.20
2023-05-13T07:14:55.349Z,24.21
2023-05-13T07:15:55.330Z,24.22
2023-05-13T07:16:55.306Z,24.22
2023-05-13T07:17:55.260Z,24.25
2023-05-13T07:18:55.272Z,24.24
2023-05-13T07:19:55.214Z,24.24
2023-05-13T07:20:55.150Z,24.24
2023-05-13T07:21:55.120Z,24.27
2023-05-13T07:22:55.157Z,24.25
2023-05-13T07:23:55.184Z,24.27
2023-05-13T07:24:55.248Z,24.27
2023-05-13T07:25:55.228Z,24.28
2023-05-13T07:26:55.310Z,24.28
2023-05-13T07:27:55.283Z,24.28
2023-05-13T07:28:55.314Z,24.29
2023-05-13T07:29:55.365Z,24.28
2023-05-13T07:30:55.387Z,24.28
2023-05-13T07:31:55.354Z,24.31
2023-05-13T07:32:55.395Z,24.29
2023-05-13T07:33:55.525Z,24.32
2023-05-13T07:34:55.499Z,24.31
2023-05-13T07:35:55.456Z,24.31
2023-05-13T07:36:55.476Z,24.32
2023-05-13T07:37:55.549Z,24.34
2023-05-13T07:38:55.548Z,24.32
2023-05-13T07:39:55.543Z,24.35
2023-05-13T07:40:55.579Z,24.36
2023-05-13T07:41:55.587Z,24.35
2023-05-13T07:42:55.597Z,24.35
2023-05-13T07:43:55.615Z,24.42
2023-05-13T07:44:55.703Z,24.39
2023-05-13T07:45:55.684Z,24.39
2023-05-13T07:46:55.777Z,24.38
2023-05-13T07:47:55.736Z,24.39
2023-05-13T07:48:55.754Z,24.40
2023-05-13T07:49:55.917Z,24.40
2023-05-13T07:50:55.808Z,24.40
2023-05-13T07:51:55.873Z,24.42
2023-05-13T07:52:55.861Z,24.45
2023-05-13T07:53:55.872Z,24.42
2023-05-13T07:54:55.892Z,24.45
2023-05-13T07:55:55.888Z,24.43
2023-05-13T07:56:55.945Z,24.48
2023-05-13T07:57:55.944Z,24.48
2023-05-13T07:58:55.948Z,24.48
2023-05-13T07:59:55.976Z,24.46
2023-05-13T08:00:55.982Z,24.48
2023-05-13T08:01:55.986Z,24.46
2023-05-13T08:02:56.056Z,24.48
2023-05-13T08:03:56.235Z,24.48
2023-05-13T08:04:56.075Z,24.48
2023-05-13T08:05:56.056Z,24.48
2023-05-13T08:06:56.003Z,24.49
2023-05-13T08:07:55.963Z,24.49
2023-05-13T08:08:55.943Z,24.49
2023-05-13T08:09:55.919Z,24.51
2023-05-13T08:10:55.902Z,24.51
2023-05-13T08:11:55.855Z,24.54
2023-05-13T08:12:55.805Z,24.52
2023-05-13T08:13:55.762Z,24.55
2023-05-13T08:14:55.717Z,24.55
2023-05-13T08:15:55.679Z,24.54
2023-05-13T08:16:55.681Z,24.52
2023-05-13T08:17:55.615Z,24.55
2023-05-13T08:18:55.684Z,24.54
2023-05-13T08:19:55.641Z,24.56
2023-05-13T08:20:55.640Z,24.56
2023-05-13T08:21:55.644Z,24.54
2023-05-13T08:22:55.676Z,24.52
2023-05-13T08:23:55.691Z,24.55
2023-05-13T08:24:55.697Z,24.54
2023-05-13T08:25:55.682Z,24.54
2023-05-13T08:26:55.707Z,24.56
2023-05-13T08:27:55.735Z,24.55
2023-05-13T08:28:55.730Z,24.56
2023-05-13T08:29:55.722Z,24.58
2023-05-13T08:30:55.730Z,24.58
2023-05-13T08:31:55.752Z,24.56
2023-05-13T08:32:55.770Z,24.59
2023-05-13T08:33:55.746Z,24.56
2023-05-13T08:34:55.885Z,24.58
2023-05-13T08:35:55.773Z,24.60
2023-05-13T08:36:55.769Z,24.62
2023-05-13T08:37:55.829Z,24.63
2023-05-13T08:38:55.772Z,24.66
2023-05-13T08:39:55.773Z,24.66
2023-05-13T08:40:55.769Z,24.66
2023-05-13T08:41:55.735Z,24.67
2023-05-13T08:42:55.738Z,24.67
2023-05-13T08:43:55.743Z,24.69
2023-05-13T08:44:55.719Z,24.69
2023-05-13T08:45:55.782Z,24.69
2023-05-13T08:46:55.609Z,24.70
2023-05-13T08:47:55.777Z,24.70
2023-05-13T08:48:55.524Z,24.69
2023-05-13T08:49:55.502Z,24.65
2023-05-13T08:50:55.446Z,24.69
2023-05-13T08:51:55.407Z,24.70
2023-05-13T08:52:55.364Z,24.75
2023-05-13T08:53:55.381Z,24.75
2023-05-13T08:54:55.298Z,24.79
2023-05-13T08:55:55.264Z,24.82
2023-05-13T08:56:55.205Z,24.84
2023-05-13T08:57:55.172Z,24.82
2023-05-13T08:58:55.122Z,24.84
2023-05-13T08:59:55.091Z,24.90
2023-05-13T09:00:55.110Z,24.89
2023-05-13T09:01:54.983Z,24.89
2023-05-13T09:02:55.029Z,24.90
2023-05-13T09:03:54.890Z,24.93
2023-05-13T09:04:54.904Z,24.93
2023-05-13T09:05:54.800Z,24.96
2023-05-13T09:06:54.772Z,24.96
2023-05-13T09:07:54.771Z,24.97
2023-05-13T09:08:54.672Z,24.98
2023-05-13T09:09:54.683Z,24.97
2023-05-13T09:10:54.575Z,24.97
2023-05-13T09:11:54.536Z,25.00
2023-05-13T09:12:54.489Z,25.03
2023-05-13T09:13:54.456Z,25.03
2023-05-13T09:14:54.432Z,25.07
2023-05-13T09:15:54.495Z,25.09
2023-05-13T09:16:54.400Z,25.10
2023-05-13T09:17:54.435Z,25.11
2023-05-13T09:18:54.546Z,25.14
2023-05-13T09:19:54.418Z,25.13
2023-05-13T09:20:54.346Z,25.15
2023-05-13T09:21:54.332Z,25.17
2023-05-13T09:22:54.308Z,25.15
2023-05-13T09:23:54.316Z,25.18
2023-05-13T09:24:54.371Z,25.17
2023-05-13T09:25:54.348Z,25.18
2023-05-13T09:26:54.355Z,25.23
2023-05-13T09:27:54.325Z,25.25
2023-05-13T09:28:54.324Z,25.27
2023-05-13T09:29:54.319Z,25.25
2023-05-13T09:30:54.412Z,25.27
2023-05-13T09:31:54.478Z,25.32
2023-05-13T09:32:54.445Z,25.28
2023-05-13T09:33:54.359Z,25.30
2023-05-13T09:34:54.402Z,25.31
2023-05-13T09:35:54.430Z,25.35
2023-05-13T09:36:54.418Z,25.34
2023-05-13T09:37:54.425Z,25.38
2023-05-13T09:38:54.468Z,25.41
2023-05-13T09:39:54.476Z,25.41
2023-05-13T09:40:54.534Z,25.40
2023-05-13T09:41:54.456Z,25.42
2023-05-13T09:42:54.489Z,25.45
2023-05-13T09:43:54.507Z,25.46
2023-05-13T09:44:54.490Z,25.49
2023-05-13T09:45:54.471Z,25.49
2023-05-13T09:46:54.575Z,25.51
2023-05-13T09:47:54.517Z,25.53
2023-05-13T09:48:56.976Z,25.57
2023-05-13T09:49:54.437Z,25.55
2023-05-13T09:50:54.418Z,25.58
2023-05-13T09:51:54.273Z,25.58
2023-05-13T09:54:13.415Z,25.57
2023-05-13T09:55:13.441Z,25.59
2023-05-13T09:56:13.435Z,25.58
2023-05-13T09:57:13.427Z,25.62
2023-05-13T09:58:13.497Z,25.62
2023-05-13T09:59:13.480Z,25.62
2023-05-13T10:00:24.735Z,25.65
2023-05-13T10:01:14.471Z,25.64
2023-05-13T10:02:13.478Z,25.62
2023-05-13T10:03:13.485Z,25.62
2023-05-13T10:04:13.526Z,25.61
2023-05-13T10:05:13.470Z,25.61
2023-05-13T10:06:13.473Z,25.61
2023-05-13T10:07:13.473Z,25.62
2023-05-13T10:08:14.091Z,25.61
2023-05-13T10:09:13.464Z,25.61
2023-05-13T10:10:13.488Z,25.61
2023-05-13T10:11:13.788Z,25.61
2023-05-13T10:12:13.459Z,25.61
2023-05-13T10:13:13.490Z,25.61
2023-05-13T10:14:13.461Z,25.64
2023-05-13T10:15:13.457Z,25.65
2023-05-13T10:16:13.537Z,25.62
2023-05-13T10:17:13.462Z,25.64
2023-05-13T10:18:13.574Z,25.64
2023-05-13T10:19:13.669Z,25.64
2023-05-13T10:20:13.483Z,25.64
2023-05-13T10:21:13.474Z,25.64
2023-05-13T10:22:13.478Z,25.64
2023-05-13T10:23:13.496Z,25.65
2023-05-13T10:24:13.498Z,25.65
2023-05-13T10:25:13.511Z,25.66
2023-05-13T10:26:13.508Z,25.68
2023-05-13T10:27:13.513Z,25.65
2023-05-13T10:28:13.513Z,25.66
2023-05-13T10:29:13.539Z,25.65
2023-05-13T10:30:13.549Z,25.65
2023-05-13T10:31:13.545Z,25.66
2023-05-13T10:32:13.670Z,25.65
2023-05-13T10:33:13.581Z,25.64
2023-05-13T10:34:13.585Z,25.66
2023-05-13T10:35:13.586Z,25.66
2023-05-13T10:36:13.609Z,25.68
2023-05-13T10:37:13.593Z,25.69
2023-05-13T10:38:13.599Z,25.70
2023-05-13T10:39:13.594Z,25.70
2023-05-13T10:40:13.635Z,25.70
2023-05-13T10:41:13.635Z,25.70
2023-05-13T10:42:13.647Z,25.69
2023-05-13T10:43:13.688Z,25.70
2023-05-13T10:44:13.668Z,25.72
2023-05-13T10:45:13.678Z,25.75
2023-05-13T10:46:13.820Z,25.72
2023-05-13T10:47:13.725Z,25.72
2023-05-13T10:48:13.765Z,25.75
2023-05-13T10:49:13.705Z,25.75
2023-05-13T10:50:13.728Z,25.75
2023-05-13T10:51:13.701Z,25.79
2023-05-13T10:52:13.715Z,25.75
2023-05-13T10:53:13.714Z,25.76
2023-05-13T10:54:13.721Z,25.78
2023-05-13T10:55:13.751Z,25.76
2023-05-13T10:56:13.762Z,25.78
2023-05-13T10:57:13.747Z,25.78
2023-05-13T10:58:13.760Z,25.78
2023-05-13T10:59:13.764Z,25.78
2023-05-13T11:00:13.792Z,25.80
2023-05-13T11:01:13.792Z,25.78
2023-05-13T11:02:13.802Z,25.79
2023-05-13T11:03:13.897Z,25.78
2023-05-13T11:04:13.832Z,25.78
2023-05-13T11:05:13.823Z,25.78
2023-05-13T11:06:13.869Z,25.75
2023-05-13T11:07:13.826Z,25.73
2023-05-13T11:08:13.826Z,25.75
2023-05-13T11:09:13.828Z,25.75
2023-05-13T11:10:13.830Z,25.78
2023-05-13T11:11:13.832Z,25.78
2023-05-13T11:12:13.854Z,25.79
2023-05-13T11:13:13.828Z,25.78
2023-05-13T11:14:13.841Z,25.79
2023-05-13T11:15:13.852Z,25.80
2023-05-13T11:16:13.882Z,25.78
2023-05-13T11:17:13.828Z,25.79
2023-05-13T11:18:13.879Z,25.79
2023-05-13T11:19:13.889Z,25.80
2023-05-13T11:20:13.849Z,25.82
2023-05-13T11:21:13.859Z,25.82
2023-05-13T11:22:13.842Z,25.80
2023-05-13T11:23:13.834Z,25.82
2023-05-13T11:24:13.832Z,25.82
2023-05-13T11:25:13.840Z,25.82
2023-05-13T11:26:13.864Z,25.82
2023-05-13T11:27:13.856Z,25.82
2023-05-13T11:28:13.856Z,25.82
2023-05-13T11:29:13.859Z,25.80
2023-05-13T11:30:13.897Z,25.83
2023-05-13T11:31:13.927Z,25.82
2023-05-13T11:32:13.886Z,25.82
2023-05-13T11:33:13.879Z,25.83
2023-05-13T11:34:13.906Z,25.80
2023-05-13T11:35:13.867Z,25.83
2023-05-13T11:36:13.902Z,25.83
2023-05-13T11:37:13.896Z,25.82
2023-05-13T11:38:13.890Z,25.83
2023-05-13T11:39:13.879Z,25.85
2023-05-13T11:40:13.880Z,25.83
2023-05-13T11:41:13.861Z,25.80
2023-05-13T11:42:13.873Z,25.85
2023-05-13T11:43:13.861Z,25.82
2023-05-13T11:44:13.850Z,25.83
2023-05-13T11:45:13.866Z,25.85
2023-05-13T11:46:13.906Z,25.85
2023-05-13T11:47:13.840Z,25.85
2023-05-13T11:48:13.840Z,25.83
2023-05-13T11:49:13.855Z,25.82
2023-05-13T11:50:13.853Z,25.83
2023-05-13T11:51:13.844Z,25.83
2023-05-13T11:52:13.845Z,25.85
2023-05-13T11:53:13.846Z,25.83
2023-05-13T11:54:13.915Z,25.83
2023-05-13T11:55:13.834Z,25.86
2023-05-13T11:56:13.854Z,25.85
2023-05-13T11:57:13.839Z,25.83
2023-05-13T11:58:13.824Z,25.85
2023-05-13T11:59:13.830Z,25.87
2023-05-13T12:00:13.831Z,25.86
2023-05-13T12:01:13.842Z,25.86
2023-05-13T12:02:13.886Z,25.87
2023-05-13T12:03:13.933Z,25.87
2023-05-13T12:04:13.837Z,25.86
2023-05-13T12:05:13.870Z,25.85
2023-05-13T12:06:13.852Z,25.86
2023-05-13T12:07:13.840Z,25.85
2023-05-13T12:08:13.827Z,25.87
2023-05-13T12:09:13.854Z,25.87
2023-05-13T12:10:13.838Z,25.87
2023-05-13T12:11:13.827Z,25.87
2023-05-13T12:12:13.815Z,25.87
2023-05-13T12:13:13.815Z,25.89
2023-05-13T12:14:13.842Z,25.90
2023-05-13T12:15:13.827Z,25.90
2023-05-13T12:16:13.862Z,25.92
2023-05-13T12:17:13.804Z,25.92
2023-05-13T12:18:13.906Z,25.92
2023-05-13T12:19:13.894Z,25.95
2023-05-13T12:20:14.068Z,25.93
2023-05-13T12:21:13.801Z,25.93
2023-05-13T12:22:13.791Z,25.93
2023-05-13T12:23:13.774Z,25.96
2023-05-13T12:24:13.783Z,25.96
2023-05-13T12:25:13.770Z,25.99
2023-05-13T12:26:13.780Z,25.97
2023-05-13T12:27:13.767Z,25.97
2023-05-13T12:28:13.821Z,26.00
2023-05-13T12:29:13.770Z,26.00
2023-05-13T12:30:13.787Z,26.01
2023-05-13T12:31:13.794Z,26.01
2023-05-13T12:32:13.746Z,26.00
2023-05-13T12:33:13.762Z,26.01
2023-05-13T12:34:13.753Z,26.03
2023-05-13T12:35:13.774Z,26.03
2023-05-13T12:36:13.727Z,26.04
2023-05-13T12:37:13.749Z,26.04
2023-05-13T12:38:13.723Z,26.06
2023-05-13T12:39:13.708Z,26.07
2023-05-13T12:40:13.724Z,26.07
2023-05-13T12:41:13.709Z,26.07
2023-05-13T12:42:13.714Z,26.10
2023-05-13T12:43:13.707Z,26.07
2023-05-13T12:44:13.689Z,26.10
2023-05-13T12:45:13.659Z,26.08
2023-05-13T12:46:14.215Z,26.08
2023-05-13T12:47:13.696Z,26.12
2023-05-13T12:48:13.664Z,26.10
2023-05-13T12:49:13.647Z,26.12
2023-05-13T12:50:13.643Z,26.08
2023-05-13T12:51:13.713Z,26.10
2023-05-13T12:52:13.648Z,26.12
2023-05-13T12:53:13.690Z,26.08
2023-05-13T12:54:13.683Z,26.08